createdAt,value
2022-08-21T00:00:02.215Z,21.38
2022-08-21T00:01:20.206Z,22.02
2022-08-21T00:02:25.996Z,21.55
2022-08-21T00:03:30.559Z,21.45
2022-08-21T00:04:34.157Z,20.58
2022-08-21T00:07:08.674Z,20.75
2022-08-21T00:08:12.058Z,19.98
2022-08-21T00:09:16.912Z,20.77
2022-08-21T00:10:20.847Z,19.95
2022-08-21T00:11:25.383Z,19.88
2022-08-21T00:12:28.920Z,20.63
2022-08-21T00:13:36.265Z,21.60
2022-08-21T00:14:39.685Z,20.85
2022-08-21T00:15:45.989Z,20.90
2022-08-21T00:16:49.699Z,22.13
2022-08-21T00:17:54.344Z,20.58
2022-08-21T00:18:57.816Z,21.85
2022-08-21T00:20:02.127Z,22.20
2022-08-21T00:21:05.796Z,22.13
2022-08-21T00:22:10.463Z,21.40
2022-08-21T00:23:14.609Z,19.95
2022-08-21T00:24:18.848Z,19.40
2022-08-21T00:26:46.474Z,18.02
2022-08-21T00:27:50.163Z,16.70
2022-08-21T00:28:54.534Z,16.80
2022-08-21T00:29:58.693Z,16.15
2022-08-21T00:31:05.114Z,16.45
2022-08-21T00:32:08.333Z,19.30
2022-08-21T00:33:18.595Z,19.35
2022-08-21T00:34:22.973Z,16.30
2022-08-21T00:35:28.806Z,17.40
2022-08-21T00:36:33.232Z,19.33
2022-08-21T00:37:36.444Z,19.95
2022-08-21T00:38:40.846Z,18.63
2022-08-21T00:39:44.285Z,17.95
2022-08-21T00:40:51.507Z,19.20
2022-08-21T00:41:54.785Z,20.30
2022-08-21T00:42:59.347Z,19.20
2022-08-21T00:44:02.802Z,19.92
2022-08-21T00:45:08.486Z,19.02
2022-08-21T00:46:14.158Z,21.17
2022-08-21T00:47:18.141Z,22.20
2022-08-21T00:48:22.726Z,22.30
2022-08-21T00:49:26.085Z,20.83
2022-08-21T00:50:33.113Z,19.08
2022-08-21T00:51:39.672Z,19.90
2022-08-21T00:52:45.041Z,19.95
2022-08-21T00:53:53.407Z,21.33
2022-08-21T00:55:00.418Z,20.75
2022-08-21T00:56:07.254Z,21.42
2022-08-21T00:57:18.511Z,19.15
2022-08-21T00:58:22.274Z,21.95
2022-08-21T00:59:27.101Z,22.55
2022-08-21T01:00:34.779Z,23.13
2022-08-21T01:01:40.635Z,20.38
2022-08-21T01:02:44.021Z,21.45
2022-08-21T01:03:49.121Z,20.92
2022-08-21T01:04:53.672Z,19.00
2022-08-21T01:05:58.304Z,20.67
2022-08-21T01:07:01.884Z,19.73
2022-08-21T01:08:06.660Z,18.77
2022-08-21T01:09:10.322Z,17.70
2022-08-21T01:10:23.973Z,18.92
2022-08-21T01:11:32.854Z,17.98
2022-08-21T01:12:37.332Z,17.23
2022-08-21T01:13:47.061Z,17.27
2022-08-21T01:14:51.430Z,16.77
2022-08-21T01:15:56.714Z,18.35
2022-08-21T01:17:04.352Z,19.77
2022-08-21T01:18:11.217Z,20.13
2022-08-21T01:19:16.373Z,19.50
2022-08-21T01:20:19.574Z,20.70
2022-08-21T01:21:28.272Z,20.83
2022-08-21T01:22:32.044Z,22.20
2022-08-21T01:23:37.155Z,19.88
2022-08-21T01:24:40.641Z,20.85
2022-08-21T01:25:44.996Z,18.65
2022-08-21T01:26:48.584Z,18.75
2022-08-21T01:27:52.874Z,19.33
2022-08-21T01:28:59.033Z,19.88
2022-08-21T01:30:07.492Z,19.15
2022-08-21T01:31:12.531Z,19.13
2022-08-21T01:32:19.989Z,20.88
2022-08-21T01:33:24.373Z,21.75
2022-08-21T01:34:28.841Z,19.58
2022-08-21T01:35:32.232Z,18.55
2022-08-21T01:36:38.103Z,19.67
2022-08-21T01:37:41.576Z,18.95
2022-08-21T01:38:45.988Z,19.63
2022-08-21T01:39:50.253Z,18.77
2022-08-21T01:40:54.612Z,19.50
2022-08-21T01:42:01.079Z,18.83
2022-08-21T01:43:05.709Z,18.83
2022-08-21T01:44:09.205Z,19.50
2022-08-21T01:45:14.791Z,18.00
2022-08-21T01:46:18.303Z,19.23
2022-08-21T01:47:22.851Z,18.77
2022-08-21T01:48:26.134Z,17.38
2022-08-21T01:49:30.919Z,16.38
2022-08-21T01:50:34.350Z,17.33
2022-08-21T01:51:40.175Z,18.70
2022-08-21T01:52:43.569Z,18.55
2022-08-21T01:53:48.172Z,21.60
2022-08-21T01:54:55.456Z,20.38
2022-08-21T01:56:00.161Z,19.85
2022-08-21T01:57:05.659Z,20.80
2022-08-21T01:58:08.954Z,19.75
2022-08-21T01:59:13.531Z,19.48
2022-08-21T02:00:19.053Z,19.23
2022-08-21T02:01:23.460Z,18.45
2022-08-21T02:02:29.711Z,19.52
2022-08-21T02:03:36.144Z,19.17
2022-08-21T02:04:39.728Z,20.13
2022-08-21T02:05:45.260Z,18.67
2022-08-21T02:06:50.212Z,18.20
2022-08-21T02:07:55.966Z,18.38
2022-08-21T02:08:59.271Z,17.60
2022-08-21T02:10:03.578Z,18.17
2022-08-21T02:11:07.082Z,18.33
2022-08-21T02:12:12.472Z,19.33
2022-08-21T02:13:15.623Z,17.55
2022-08-21T02:14:32.080Z,16.63
2022-08-21T02:15:37.770Z,17.15
2022-08-21T02:16:41.625Z,16.70
2022-08-21T02:17:48.335Z,17.88
2022-08-21T02:18:51.712Z,17.30
2022-08-21T02:19:56.815Z,15.97
2022-08-21T02:21:00.042Z,16.55
2022-08-21T02:22:06.221Z,17.85
2022-08-21T02:23:12.016Z,17.48
2022-08-21T02:24:16.383Z,16.88
2022-08-21T02:25:20.774Z,18.13
2022-08-21T02:26:25.365Z,16.35
2022-08-21T02:27:49.873Z,16.75
2022-08-21T02:28:55.052Z,17.48
2022-08-21T02:29:59.093Z,17.33
2022-08-21T02:31:04.097Z,18.73
2022-08-21T02:32:07.715Z,17.23
2022-08-21T02:33:13.824Z,18.48
2022-08-21T02:34:17.237Z,17.52
2022-08-21T02:35:22.482Z,17.15
2022-08-21T02:36:25.718Z,16.83
2022-08-21T02:37:31.655Z,16.50
2022-08-21T02:38:39.125Z,17.45
2022-08-21T02:39:43.563Z,16.52
2022-08-21T02:40:51.134Z,17.63
2022-08-21T02:41:55.554Z,18.10
2022-08-21T02:42:59.349Z,17.98
2022-08-21T02:44:03.816Z,17.73
2022-08-21T02:45:08.339Z,17.63
2022-08-21T02:46:14.363Z,17.35
2022-08-21T02:47:17.707Z,17.42
2022-08-21T02:48:24.363Z,16.95
2022-08-21T02:49:28.717Z,19.38
2022-08-21T02:50:34.385Z,18.48
2022-08-21T02:51:38.856Z,19.25
2022-08-21T02:52:43.472Z,20.40
2022-08-21T02:53:49.234Z,20.15
2022-08-21T02:54:52.382Z,21.70
2022-08-21T02:55:58.523Z,21.00
2022-08-21T02:57:01.658Z,22.75
2022-08-21T02:58:07.249Z,23.80
2022-08-21T02:59:10.575Z,22.50
2022-08-21T03:00:15.368Z,23.13
2022-08-21T03:01:18.861Z,24.48
2022-08-21T03:02:23.393Z,24.05
2022-08-21T03:03:30.467Z,24.40
2022-08-21T03:04:34.782Z,24.13
2022-08-21T03:05:38.822Z,23.52
2022-08-21T03:06:43.280Z,23.70
2022-08-21T03:07:48.802Z,23.48
2022-08-21T03:08:53.304Z,22.77
2022-08-21T03:09:56.650Z,23.25
2022-08-21T03:11:02.143Z,22.40
2022-08-21T03:12:06.187Z,24.52
2022-08-21T03:13:11.018Z,23.45
2022-08-21T03:14:14.473Z,23.58
2022-08-21T03:15:24.781Z,23.00
2022-08-21T03:16:30.932Z,23.30
2022-08-21T03:17:37.643Z,24.02
2022-08-21T03:18:41.321Z,22.15
2022-08-21T03:19:45.824Z,21.60
2022-08-21T03:20:49.875Z,23.63
2022-08-21T03:21:54.205Z,20.92
2022-08-21T03:22:59.366Z,23.27
2022-08-21T03:24:04.475Z,22.45
2022-08-21T03:25:10.880Z,23.55
2022-08-21T03:26:16.716Z,24.42
2022-08-21T03:27:19.954Z,23.23
2022-08-21T03:28:26.988Z,22.23
2022-08-21T03:29:30.226Z,22.93
2022-08-21T03:30:34.534Z,21.98
2022-08-21T03:31:38.856Z,24.33
2022-08-21T03:32:42.352Z,22.02
2022-08-21T03:33:46.791Z,22.13
2022-08-21T03:34:50.124Z,22.35
2022-08-21T03:36:01.812Z,21.88
2022-08-21T03:37:07.194Z,19.83
2022-08-21T03:38:14.147Z,22.13
2022-08-21T03:39:18.844Z,21.50
2022-08-21T03:40:25.774Z,20.60
2022-08-21T03:41:30.039Z,22.25
2022-08-21T03:42:33.601Z,20.63
2022-08-21T03:43:39.747Z,22.17
2022-08-21T03:44:42.952Z,22.88
2022-08-21T03:45:47.542Z,23.45
2022-08-21T03:46:50.686Z,24.05
2022-08-21T03:47:56.984Z,24.80
2022-08-21T03:49:01.765Z,22.52
2022-08-21T03:50:05.894Z,22.08
2022-08-21T03:51:10.792Z,23.80
2022-08-21T03:52:14.463Z,26.55
2022-08-21T03:53:20.543Z,24.00
2022-08-21T03:54:24.093Z,25.53
2022-08-21T03:55:29.415Z,28.15
2022-08-21T03:56:33.002Z,24.87
2022-08-21T03:57:37.907Z,24.30
2022-08-21T03:58:41.422Z,23.58
2022-08-21T03:59:46.132Z,22.80
2022-08-21T04:04:01.279Z,21.98
2022-08-21T04:05:05.657Z,22.50
2022-08-21T04:06:11.651Z,21.60
2022-08-21T04:07:15.143Z,21.53
2022-08-21T04:08:21.090Z,20.70
2022-08-21T04:09:25.228Z,21.83
2022-08-21T04:10:31.244Z,22.13
2022-08-21T04:11:35.543Z,21.90
2022-08-21T04:12:39.021Z,20.53
2022-08-21T04:13:44.857Z,21.77
2022-08-21T04:14:48.667Z,20.57
2022-08-21T04:15:53.503Z,21.60
2022-08-21T04:16:56.809Z,21.60
2022-08-21T04:18:01.412Z,21.53
2022-08-21T04:19:04.919Z,21.95
2022-08-21T04:20:10.339Z,21.23
2022-08-21T04:21:14.793Z,21.23
2022-08-21T04:22:18.582Z,20.52
2022-08-21T04:23:25.128Z,20.67
2022-08-21T04:24:29.921Z,20.83
2022-08-21T04:25:34.537Z,21.10
2022-08-21T04:26:39.021Z,21.00
2022-08-21T04:27:43.481Z,21.37
2022-08-21T04:28:47.878Z,21.13
2022-08-21T04:29:51.082Z,20.63
2022-08-21T04:30:55.237Z,21.02
2022-08-21T04:31:58.646Z,21.10
2022-08-21T04:33:03.035Z,22.27
2022-08-21T04:34:06.514Z,21.53
2022-08-21T04:35:12.761Z,21.47
2022-08-21T04:36:17.076Z,23.10
2022-08-21T04:37:26.256Z,22.80
2022-08-21T04:38:36.687Z,23.03
2022-08-21T04:39:41.232Z,22.93
2022-08-21T04:40:45.870Z,23.60
2022-08-21T04:41:49.329Z,22.70
2022-08-21T04:42:55.696Z,22.23
2022-08-21T04:43:59.361Z,22.70
2022-08-21T04:45:04.092Z,22.57
2022-08-21T04:46:07.945Z,21.33
2022-08-21T04:47:18.904Z,22.13
2022-08-21T04:48:25.001Z,22.03
2022-08-21T04:49:29.692Z,20.23
2022-08-21T04:50:39.981Z,19.43
2022-08-21T04:51:44.551Z,21.63
2022-08-21T04:52:48.647Z,20.63
2022-08-21T04:53:57.901Z,20.60
2022-08-21T04:55:02.813Z,19.37
2022-08-21T04:56:10.692Z,20.77
2022-08-21T04:57:15.672Z,20.93
2022-08-21T04:58:22.156Z,20.23
2022-08-21T04:59:29.764Z,20.00
2022-08-21T05:00:34.313Z,20.90
2022-08-21T05:01:39.039Z,20.17
2022-08-21T05:02:44.264Z,20.53
2022-08-21T05:03:49.214Z,18.87
2022-08-21T05:04:55.143Z,20.40
2022-08-21T05:05:58.915Z,19.20
2022-08-21T05:07:07.284Z,19.23
2022-08-21T05:08:14.501Z,19.50
2022-08-21T05:09:21.404Z,19.10
2022-08-21T05:10:24.919Z,19.70
2022-08-21T05:11:29.991Z,19.37
2022-08-21T05:12:34.640Z,20.40
2022-08-21T05:13:41.893Z,21.10
2022-08-21T05:14:45.443Z,19.93
2022-08-21T05:15:49.885Z,20.60
2022-08-21T05:16:53.155Z,18.63
2022-08-21T05:18:00.739Z,19.83
2022-08-21T05:19:05.480Z,18.60
2022-08-21T05:20:11.184Z,18.83
2022-08-21T05:21:14.892Z,18.47
2022-08-21T05:22:22.690Z,18.70
2022-08-21T05:23:26.403Z,17.80
2022-08-21T05:24:32.502Z,17.57
2022-08-21T05:25:36.159Z,19.10
2022-08-21T05:26:45.474Z,18.77
2022-08-21T05:27:52.205Z,18.27
2022-08-21T05:28:57.332Z,19.03
2022-08-21T05:30:00.956Z,19.77
2022-08-21T05:31:05.915Z,18.33
2022-08-21T05:32:11.363Z,17.87
2022-08-21T05:33:16.067Z,18.17
2022-08-21T05:34:20.972Z,17.90
2022-08-21T05:35:26.236Z,18.43
2022-08-21T05:36:29.722Z,17.40
2022-08-21T05:37:34.793Z,18.13
2022-08-21T05:38:38.352Z,17.40
2022-08-21T05:40:21.167Z,17.73
2022-08-21T05:41:08.809Z,17.47
2022-08-21T05:42:13.522Z,17.77
2022-08-21T05:43:18.241Z,16.67
2022-08-21T05:44:21.714Z,18.37
2022-08-21T05:45:41.541Z,16.60
2022-08-21T05:46:47.055Z,18.33
2022-08-21T05:47:50.542Z,16.30
2022-08-21T05:49:20.025Z,17.30
2022-08-21T05:50:23.882Z,22.27
2022-08-21T05:51:34.551Z,25.93
2022-08-21T05:52:38.202Z,18.23
2022-08-21T05:53:43.715Z,18.70
2022-08-21T05:54:48.783Z,17.80
2022-08-21T05:56:02.504Z,17.30
2022-08-21T05:57:15.477Z,17.10
2022-08-21T05:58:20.838Z,17.07
2022-08-21T05:59:25.806Z,17.47
2022-08-21T06:00:29.118Z,17.93
2022-08-21T06:01:33.933Z,17.87
2022-08-21T06:02:37.340Z,17.53
2022-08-21T06:03:43.119Z,17.70
2022-08-21T06:04:46.922Z,18.73
2022-08-21T06:05:51.124Z,17.80
2022-08-21T06:06:54.404Z,17.23
2022-08-21T06:07:59.077Z,17.23
2022-08-21T06:09:02.980Z,17.70
2022-08-21T06:10:09.969Z,18.53
2022-08-21T06:11:13.288Z,18.37
2022-08-21T06:12:17.965Z,18.03
2022-08-21T06:13:22.042Z,16.83
2022-08-21T06:14:26.631Z,17.60
2022-08-21T06:15:33.123Z,17.33
2022-08-21T06:16:37.792Z,17.03
2022-08-21T06:17:41.255Z,16.47
2022-08-21T06:18:46.949Z,16.70
2022-08-21T06:19:53.073Z,16.40
2022-08-21T06:20:57.876Z,18.47
2022-08-21T06:22:04.595Z,17.87
2022-08-21T06:23:09.316Z,17.83
2022-08-21T06:24:12.980Z,18.13
2022-08-21T06:25:19.669Z,17.63
2022-08-21T06:26:23.474Z,16.80
2022-08-21T06:27:28.034Z,16.97
2022-08-21T06:28:31.555Z,18.60
2022-08-21T06:29:44.284Z,17.57
2022-08-21T06:30:47.868Z,17.57
2022-08-21T06:31:54.088Z,17.50
2022-08-21T06:32:57.964Z,17.33
2022-08-21T06:34:02.362Z,19.03
2022-08-21T06:35:06.713Z,18.87
2022-08-21T06:36:11.201Z,18.33
2022-08-21T06:37:14.472Z,18.60
2022-08-21T06:38:19.371Z,20.00
2022-08-21T06:39:30.585Z,21.67
2022-08-21T06:40:43.663Z,31.20
2022-08-21T06:41:50.163Z,21.27
2022-08-21T06:42:54.893Z,21.03
2022-08-21T06:43:59.950Z,20.87
2022-08-21T06:45:03.430Z,20.20
2022-08-21T06:46:08.283Z,20.33
2022-08-21T06:47:12.240Z,21.50
2022-08-21T06:48:19.317Z,21.57
2022-08-21T06:49:22.912Z,23.37
2022-08-21T06:50:27.512Z,21.33
2022-08-21T06:51:30.758Z,22.23
2022-08-21T06:52:35.112Z,21.70
2022-08-21T06:53:39.591Z,25.13
2022-08-21T06:54:42.915Z,22.07
2022-08-21T06:55:49.182Z,21.87
2022-08-21T06:56:52.751Z,22.57
2022-08-21T06:57:57.353Z,28.77
2022-08-21T06:59:02.218Z,28.80
2022-08-21T07:00:06.179Z,26.20
2022-08-21T07:01:10.403Z,35.13
2022-08-21T07:02:13.801Z,31.63
2022-08-21T07:03:25.750Z,29.23
2022-08-21T07:04:28.921Z,29.70
2022-08-21T07:05:33.551Z,23.53
2022-08-21T07:06:36.684Z,25.47
2022-08-21T07:07:40.934Z,23.50
2022-08-21T07:08:45.408Z,20.33
2022-08-21T07:09:48.532Z,21.23
2022-08-21T07:10:55.160Z,20.77
2022-08-21T07:11:58.442Z,19.80
2022-08-21T07:13:03.077Z,22.77
2022-08-21T07:14:06.671Z,23.87
2022-08-21T07:15:12.109Z,23.57
2022-08-21T07:16:16.235Z,23.50
2022-08-21T07:17:19.512Z,23.77
2022-08-21T07:18:23.622Z,21.93
2022-08-21T07:19:26.770Z,21.40
2022-08-21T07:20:31.439Z,20.93
2022-08-21T07:21:35.560Z,21.67
2022-08-21T07:22:39.995Z,21.00
2022-08-21T07:23:45.684Z,20.73
2022-08-21T07:24:48.811Z,21.07
2022-08-21T07:25:54.444Z,20.63
2022-08-21T07:26:57.589Z,19.77
2022-08-21T07:28:01.841Z,21.37
2022-08-21T07:29:05.509Z,21.57
2022-08-21T07:30:10.583Z,21.63
2022-08-21T07:31:15.754Z,20.27
2022-08-21T07:32:21.457Z,19.60
2022-08-21T07:33:25.873Z,21.27
2022-08-21T07:34:30.230Z,21.40
2022-08-21T07:35:34.530Z,20.97
2022-08-21T07:36:38.868Z,19.07
2022-08-21T07:37:42.443Z,20.07
2022-08-21T07:38:46.934Z,20.67
2022-08-21T07:39:50.284Z,20.07
2022-08-21T07:40:57.751Z,18.10
2022-08-21T07:42:03.920Z,10.67
2022-08-21T07:43:10.678Z,7.93
2022-08-21T07:44:13.782Z,6.50
2022-08-21T07:45:18.191Z,6.77
2022-08-21T07:46:21.511Z,5.67
2022-08-21T07:47:29.352Z,6.20
2022-08-21T07:48:46.131Z,5.30
2022-08-21T07:49:49.181Z,4.80
2022-08-21T07:50:53.623Z,5.40
2022-08-21T07:51:57.079Z,6.07
2022-08-21T07:53:01.347Z,5.13
2022-08-21T07:54:04.709Z,3.97
2022-08-21T07:55:10.278Z,4.37
2022-08-21T07:56:14.794Z,4.23
2022-08-21T07:57:18.985Z,4.23
2022-08-21T07:58:26.000Z,4.27
2022-08-21T07:59:29.520Z,3.70
2022-08-21T08:00:34.112Z,3.40
2022-08-21T08:01:37.335Z,3.73
2022-08-21T08:02:42.272Z,5.33
2022-08-21T08:03:46.323Z,3.20
2022-08-21T08:04:51.211Z,3.07
2022-08-21T08:05:54.518Z,2.97
2022-08-21T08:06:59.208Z,3.00
2022-08-21T08:08:02.476Z,2.80
2022-08-21T08:09:06.610Z,2.50
2022-08-21T08:10:11.632Z,2.63
2022-08-21T08:11:17.563Z,3.17
2022-08-21T08:12:21.463Z,2.80
2022-08-21T08:13:25.822Z,3.00
2022-08-21T08:14:31.488Z,2.30
2022-08-21T08:15:37.724Z,2.70
2022-08-21T08:16:40.813Z,2.40
2022-08-21T08:17:45.165Z,2.60
2022-08-21T08:18:49.290Z,2.90
2022-08-21T08:19:52.572Z,2.83
2022-08-21T08:20:56.680Z,2.87
2022-08-21T08:21:59.773Z,2.57
2022-08-21T08:23:04.202Z,2.70
2022-08-21T08:24:19.562Z,2.97
2022-08-21T08:25:25.179Z,2.50
2022-08-21T08:26:29.734Z,2.23
2022-08-21T08:27:33.989Z,2.27
2022-08-21T08:28:37.069Z,2.30
2022-08-21T08:29:41.272Z,2.07
2022-08-21T08:30:44.306Z,2.20
2022-08-21T08:31:48.357Z,2.03
2022-08-21T08:32:51.543Z,1.80
2022-08-21T08:33:55.656Z,2.33
2022-08-21T08:34:58.733Z,2.00
2022-08-21T08:36:07.992Z,2.00
2022-08-21T08:37:12.192Z,2.20
2022-08-21T08:38:20.919Z,2.37
2022-08-21T08:39:29.676Z,2.43
2022-08-21T08:40:38.764Z,2.50
2022-08-21T08:41:48.423Z,2.20
2022-08-21T08:43:02.372Z,4.13
2022-08-21T08:44:08.453Z,3.00
2022-08-21T08:45:14.916Z,3.53
2022-08-21T08:46:21.224Z,12.40
2022-08-21T08:47:27.590Z,5.70
2022-08-21T08:48:40.919Z,5.53
2022-08-21T08:49:52.664Z,5.70
2022-08-21T08:50:58.354Z,3.20
2022-08-21T08:52:05.202Z,2.83
2022-08-21T08:53:13.611Z,2.70
2022-08-21T08:56:09.688Z,3.60
2022-08-21T08:57:22.512Z,2.50
2022-08-21T08:58:31.476Z,2.70
2022-08-21T08:59:41.105Z,2.20
2022-08-21T09:00:49.444Z,2.60
2022-08-21T09:01:53.718Z,2.30
2022-08-21T09:03:01.096Z,2.30
2022-08-21T09:04:05.891Z,2.30
2022-08-21T09:05:09.833Z,3.50
2022-08-21T09:06:25.559Z,2.40
2022-08-21T09:07:40.272Z,4.50
2022-08-21T09:08:50.822Z,4.43
2022-08-21T09:10:06.515Z,5.47
2022-08-21T09:11:15.077Z,3.10
2022-08-21T09:12:34.201Z,3.57
2022-08-21T09:13:52.668Z,2.00
2022-08-21T09:15:05.690Z,2.20
2022-08-21T09:16:15.464Z,1.80
2022-08-21T09:17:32.560Z,2.20
2022-08-21T09:18:45.522Z,1.97
2022-08-21T09:19:59.363Z,3.13
2022-08-21T09:21:12.252Z,2.00
2022-08-21T09:22:21.034Z,2.10
2022-08-21T09:23:33.879Z,2.27
2022-08-21T09:24:46.935Z,2.20
2022-08-21T09:25:58.875Z,2.20
2022-08-21T09:27:09.489Z,1.93
2022-08-21T09:28:15.925Z,2.00
2022-08-21T09:29:25.562Z,2.10
2022-08-21T09:30:34.824Z,2.10
2022-08-21T09:31:38.729Z,2.00
2022-08-21T09:32:43.181Z,1.87
2022-08-21T09:33:46.213Z,2.30
2022-08-21T09:35:02.255Z,1.90
2022-08-21T09:36:07.023Z,1.80
2022-08-21T09:37:19.063Z,1.73
2022-08-21T09:38:29.891Z,1.50
2022-08-21T09:39:40.251Z,1.57
2022-08-21T09:40:48.183Z,2.03
2022-08-21T09:41:58.081Z,1.40
2022-08-21T09:43:04.652Z,2.00
2022-08-21T09:44:11.180Z,24.97
2022-08-21T09:45:18.403Z,15.50
2022-08-21T09:46:25.201Z,3.60
2022-08-21T09:47:28.660Z,1.60
2022-08-21T09:48:40.579Z,3.43
2022-08-21T09:49:44.801Z,4.03
2022-08-21T09:50:50.441Z,2.80
2022-08-21T09:51:55.311Z,1.50
2022-08-21T09:53:01.306Z,3.10
2022-08-21T09:54:15.622Z,1.60
2022-08-21T09:55:41.804Z,2.43
2022-08-21T09:57:13.153Z,1.47
2022-08-21T09:58:17.681Z,2.87
2022-08-21T09:59:30.841Z,4.23
2022-08-21T10:00:38.175Z,4.27
2022-08-21T10:01:45.494Z,4.53
2022-08-21T10:02:49.681Z,5.10
2022-08-21T10:04:04.691Z,4.70
2022-08-21T10:05:12.249Z,2.00
2022-08-21T10:06:24.592Z,1.87
2022-08-21T10:07:30.764Z,2.77
2022-08-21T10:08:35.990Z,2.73
2022-08-21T10:09:40.190Z,1.30
2022-08-21T10:10:43.300Z,3.00
2022-08-21T10:11:54.137Z,1.57
2022-08-21T10:13:02.325Z,1.83
2022-08-21T10:14:15.520Z,1.57
2022-08-21T10:15:25.943Z,1.27
2022-08-21T10:16:34.348Z,1.00
2022-08-21T10:17:43.541Z,1.10
2022-08-21T10:18:54.390Z,1.00
2022-08-21T10:20:02.585Z,1.30
2022-08-21T10:21:12.453Z,0.90
2022-08-21T10:22:25.383Z,1.10
2022-08-21T10:23:41.020Z,1.17
2022-08-21T10:24:52.460Z,1.00
2022-08-21T10:26:13.333Z,1.17
2022-08-21T10:27:25.332Z,1.20
2022-08-21T10:28:34.601Z,1.10
2022-08-21T10:29:50.540Z,1.00
2022-08-21T10:30:59.476Z,1.13
2022-08-21T10:32:15.682Z,1.20
2022-08-21T10:33:38.662Z,1.30
2022-08-21T10:34:49.904Z,1.30
2022-08-21T10:35:59.573Z,1.20
2022-08-21T10:37:12.790Z,1.10
2022-08-21T10:39:02.697Z,1.20
2022-08-21T10:40:19.843Z,1.00
2022-08-21T10:41:30.749Z,1.40
2022-08-21T10:42:39.582Z,1.27
2022-08-21T10:43:50.968Z,1.00
2022-08-21T10:45:03.604Z,1.10
2022-08-21T10:46:14.819Z,1.20
2022-08-21T10:47:21.401Z,0.97
2022-08-21T10:48:31.316Z,1.07
2022-08-21T10:49:42.266Z,1.20
2022-08-21T10:50:49.892Z,1.10
2022-08-21T10:51:58.930Z,1.20
2022-08-21T10:53:16.944Z,1.27
2022-08-21T10:54:28.851Z,1.30
2022-08-21T10:55:36.214Z,1.20
2022-08-21T10:56:44.081Z,1.20
2022-08-21T10:57:49.581Z,1.27
2022-08-21T10:59:04.410Z,1.20
2022-08-21T11:00:10.833Z,1.10
2022-08-21T11:01:21.199Z,1.10
2022-08-21T11:02:29.212Z,1.30
2022-08-21T11:03:36.791Z,1.30
2022-08-21T11:04:50.225Z,1.17
2022-08-21T11:05:56.984Z,1.20
2022-08-21T11:07:04.586Z,1.67
2022-08-21T11:08:15.514Z,1.17
2022-08-21T11:09:22.299Z,1.30
2022-08-21T11:10:29.354Z,1.10
2022-08-21T11:11:37.049Z,1.23
2022-08-21T11:12:44.136Z,1.13
2022-08-21T11:13:51.130Z,1.23
2022-08-21T11:14:59.476Z,1.27
2022-08-21T11:16:07.311Z,1.10
2022-08-21T11:17:17.231Z,1.37
2022-08-21T11:18:26.800Z,1.27
2022-08-21T11:19:34.034Z,1.30
2022-08-21T11:20:44.205Z,1.20
2022-08-21T11:21:53.755Z,1.17
2022-08-21T11:23:03.676Z,1.30
2022-08-21T11:24:28.951Z,1.43
2022-08-21T11:25:37.173Z,1.30
2022-08-21T11:26:44.566Z,1.63
2022-08-21T11:27:52.630Z,1.40
2022-08-21T11:29:01.195Z,1.03
2022-08-21T11:30:06.035Z,1.40
2022-08-21T11:31:18.213Z,1.50
2022-08-21T11:32:58.366Z,2.20
2022-08-21T11:34:11.813Z,2.77
2022-08-21T11:35:28.769Z,1.20
2022-08-21T11:36:38.084Z,1.37
2022-08-21T11:37:57.669Z,1.77
2022-08-21T11:39:09.140Z,1.40
2022-08-21T11:40:23.735Z,1.20
2022-08-21T11:41:31.909Z,1.30
2022-08-21T11:42:42.530Z,1.37
2022-08-21T11:43:52.199Z,6.27
2022-08-21T11:45:13.798Z,6.03
2022-08-21T11:46:31.449Z,3.53
2022-08-21T11:47:55.011Z,1.30
2022-08-21T11:49:08.390Z,1.30
2022-08-21T11:50:34.168Z,1.70
2022-08-21T11:51:44.258Z,2.47
2022-08-21T11:52:52.679Z,2.20
2022-08-21T11:54:07.839Z,2.63
2022-08-21T11:55:16.911Z,3.57
2022-08-21T11:56:28.568Z,2.70
2022-08-21T11:57:35.483Z,2.10
2022-08-21T11:58:41.638Z,5.83
2022-08-21T11:59:51.561Z,8.40
2022-08-21T12:00:59.178Z,3.03
2022-08-21T12:02:03.682Z,3.33
2022-08-21T12:03:16.401Z,3.43
2022-08-21T12:04:27.652Z,2.80
2022-08-21T12:05:37.399Z,1.77
2022-08-21T12:06:42.306Z,1.27
2022-08-21T12:07:47.410Z,1.33
2022-08-21T12:09:00.126Z,1.30
2022-08-21T12:10:07.266Z,1.90
2022-08-21T12:11:12.160Z,1.40
2022-08-21T12:12:27.159Z,1.73
2022-08-21T12:13:40.046Z,1.93
2022-08-21T12:14:46.969Z,3.03
2022-08-21T12:15:51.640Z,2.83
2022-08-21T12:17:06.353Z,1.40
2022-08-21T12:18:26.181Z,1.73
2022-08-21T12:19:33.968Z,2.93
2022-08-21T12:20:50.784Z,1.80
2022-08-21T12:21:57.489Z,2.23
2022-08-21T12:23:07.353Z,1.57
2022-08-21T12:24:22.735Z,1.60
2022-08-21T12:25:38.771Z,1.83
2022-08-21T12:26:52.982Z,2.77
2022-08-21T12:28:08.879Z,2.30
2022-08-21T12:29:19.210Z,2.43
2022-08-21T12:30:34.529Z,2.10
2022-08-21T12:31:38.661Z,1.60
2022-08-21T12:32:46.593Z,2.27
2022-08-21T12:34:04.694Z,1.90
2022-08-21T12:35:15.548Z,1.80
2022-08-21T12:36:34.811Z,3.67
2022-08-21T12:37:44.680Z,2.10
2022-08-21T12:38:50.787Z,1.70
2022-08-21T12:40:01.753Z,1.67
2022-08-21T12:41:08.301Z,1.30
2022-08-21T12:42:18.908Z,1.30
2022-08-21T12:43:24.367Z,1.30
2022-08-21T12:44:35.983Z,1.30
2022-08-21T12:45:43.501Z,1.87
2022-08-21T12:46:51.045Z,1.70
2022-08-21T12:47:59.972Z,2.10
2022-08-21T12:49:10.134Z,1.40
2022-08-21T12:50:17.958Z,1.53
2022-08-21T12:51:26.189Z,1.77
2022-08-21T12:52:38.989Z,1.60
2022-08-21T12:53:46.143Z,2.10
2022-08-21T12:54:50.591Z,2.63
2022-08-21T12:55:53.847Z,2.13
2022-08-21T12:57:02.569Z,1.53
2022-08-21T12:58:06.868Z,1.67
2022-08-21T12:59:14.892Z,1.30
2022-08-21T13:00:23.651Z,1.20
2022-08-21T13:01:31.966Z,1.83
2022-08-21T13:02:38.349Z,1.20
2022-08-21T13:03:43.632Z,1.20
2022-08-21T13:04:48.999Z,1.20
2022-08-21T13:05:54.957Z,1.20
2022-08-21T13:07:00.628Z,1.27
2022-08-21T13:08:07.116Z,1.20
2022-08-21T13:09:16.139Z,1.83
2022-08-21T13:10:23.778Z,1.90
2022-08-21T13:11:32.612Z,1.40
2022-08-21T13:12:38.280Z,1.20
2022-08-21T13:13:46.856Z,1.30
2022-08-21T13:14:54.472Z,1.30
2022-08-21T13:16:01.871Z,1.10
2022-08-21T13:17:08.079Z,2.03
2022-08-21T13:18:23.691Z,1.20
2022-08-21T13:19:27.734Z,1.00
2022-08-21T13:20:35.562Z,1.13
2022-08-21T13:21:41.921Z,1.20
2022-08-21T13:22:46.809Z,1.10
2022-08-21T13:23:49.810Z,1.40
2022-08-21T13:24:55.049Z,1.30
2022-08-21T13:25:58.890Z,1.20
2022-08-21T13:27:03.492Z,1.60
2022-08-21T13:28:10.145Z,1.37
2022-08-21T13:29:24.275Z,1.50
2022-08-21T13:30:28.642Z,1.60
2022-08-21T13:31:32.775Z,1.80
2022-08-21T13:32:39.491Z,1.47
2022-08-21T13:33:43.102Z,1.30
2022-08-21T13:34:47.252Z,1.60
2022-08-21T13:36:06.349Z,1.50
2022-08-21T13:37:10.380Z,1.30
2022-08-21T13:38:14.526Z,1.60
2022-08-21T13:39:19.251Z,1.73
2022-08-21T13:40:28.439Z,1.67
2022-08-21T13:41:34.301Z,2.03
2022-08-21T13:42:38.478Z,1.87
2022-08-21T13:43:46.810Z,1.90
2022-08-21T13:44:51.171Z,1.70
2022-08-21T13:45:56.113Z,2.00
2022-08-21T13:47:02.059Z,1.63
2022-08-21T13:48:06.946Z,1.67
2022-08-21T13:49:12.279Z,1.73
2022-08-21T13:50:16.986Z,1.70
2022-08-21T13:51:22.909Z,1.60
2022-08-21T13:52:27.425Z,1.60
2022-08-21T13:53:33.721Z,1.53
2022-08-21T13:54:39.432Z,1.40
2022-08-21T13:55:46.045Z,1.60
2022-08-21T13:56:49.240Z,1.53
2022-08-21T13:58:02.144Z,1.87
2022-08-21T13:59:05.319Z,1.30
2022-08-21T14:00:15.959Z,1.40
2022-08-21T14:01:22.024Z,1.70
2022-08-21T14:02:26.827Z,1.43
2022-08-21T14:03:34.838Z,1.30
2022-08-21T14:04:44.384Z,1.57
2022-08-21T14:05:57.391Z,1.80
2022-08-21T14:07:16.824Z,1.60
2022-08-21T14:08:30.157Z,1.40
2022-08-21T14:09:37.268Z,1.43
2022-08-21T14:10:44.209Z,1.60
2022-08-21T14:11:48.370Z,1.70
2022-08-21T14:12:53.580Z,1.60
2022-08-21T14:14:01.475Z,1.40
2022-08-21T14:15:06.471Z,1.37
2022-08-21T14:16:17.817Z,1.70
2022-08-21T14:17:33.437Z,1.40
2022-08-21T14:18:46.744Z,1.63
2022-08-21T14:19:49.760Z,1.63
2022-08-21T14:20:53.945Z,1.50
2022-08-21T14:21:57.360Z,1.30
2022-08-21T14:23:03.153Z,1.40
2022-08-21T14:24:10.341Z,1.40
2022-08-21T14:25:31.729Z,1.60
2022-08-21T14:26:37.292Z,1.60
2022-08-21T14:27:45.842Z,1.60
2022-08-21T14:28:48.850Z,1.57
2022-08-21T14:29:53.029Z,1.70
2022-08-21T14:30:57.221Z,1.70
2022-08-21T14:32:02.977Z,2.40
2022-08-21T14:33:12.096Z,3.00
2022-08-21T14:34:19.445Z,2.40
2022-08-21T14:35:23.754Z,2.60
2022-08-21T14:36:28.850Z,2.70
2022-08-21T14:37:33.118Z,2.50
2022-08-21T14:38:39.253Z,2.77
2022-08-21T14:39:45.266Z,2.90
2022-08-21T14:40:50.794Z,2.80
2022-08-21T14:41:55.511Z,2.93
2022-08-21T14:42:59.185Z,2.90